createdAt,value
2023-01-27T00:00:17.283Z,14.17
2023-01-27T00:05:11.204Z,15.20
2023-01-27T00:10:05.056Z,16.50
2023-01-27T00:14:57.035Z,14.47
2023-01-27T00:19:49.049Z,13.27
2023-01-27T00:24:41.708Z,13.50
2023-01-27T00:29:33.728Z,16.20
2023-01-27T00:34:25.770Z,13.73
2023-01-27T00:39:17.836Z,15.23
2023-01-27T00:44:14.663Z,14.13
2023-01-27T00:49:11.053Z,12.87
2023-01-27T00:54:06.287Z,14.03
2023-01-27T00:58:58.659Z,13.90
2023-01-27T01:03:51.138Z,13.47
2023-01-27T01:08:43.802Z,15.07
2023-01-27T01:13:36.184Z,14.20
2023-01-27T01:18:28.204Z,13.77
2023-01-27T01:23:20.245Z,13.23
2023-01-27T01:28:12.332Z,13.00
2023-01-27T01:33:04.570Z,13.63
2023-01-27T01:37:56.814Z,12.63
2023-01-27T01:43:02.400Z,13.43
2023-01-27T01:47:57.359Z,12.33
2023-01-27T01:52:51.272Z,12.80
2023-01-27T01:57:45.318Z,12.90
2023-01-27T02:02:39.222Z,12.23
2023-01-27T02:13:45.465Z,13.23
2023-01-27T02:18:41.425Z,13.63
2023-01-27T02:23:42.332Z,13.50
2023-01-27T02:28:35.573Z,13.53
2023-01-27T02:33:27.860Z,15.13
2023-01-27T02:38:20.326Z,15.43
2023-01-27T02:43:12.426Z,16.77
2023-01-27T02:48:04.562Z,17.57
2023-01-27T02:52:57.269Z,15.93
2023-01-27T02:57:49.389Z,16.43
2023-01-27T03:02:55.392Z,15.73
2023-01-27T03:07:47.433Z,16.37
2023-01-27T03:12:39.786Z,15.93
2023-01-27T03:17:54.022Z,16.40
2023-01-27T03:22:51.024Z,16.67
2023-01-27T03:27:48.608Z,15.33
2023-01-27T03:33:05.528Z,14.97
2023-01-27T03:38:35.160Z,13.83
2023-01-27T03:43:45.836Z,14.47
2023-01-27T03:48:38.498Z,15.33
2023-01-27T03:53:30.465Z,13.73
2023-01-27T03:58:27.445Z,13.17
2023-01-27T04:03:39.162Z,12.87
2023-01-27T04:08:31.232Z,12.27
2023-01-27T04:13:23.418Z,12.07
2023-01-27T04:18:16.114Z,13.83
2023-01-27T04:23:08.107Z,14.03
2023-01-27T04:28:00.141Z,12.83
2023-01-27T04:32:52.191Z,12.53
2023-01-27T04:37:44.457Z,12.33
2023-01-27T04:42:36.729Z,13.43
2023-01-27T04:47:28.771Z,12.63
2023-01-27T04:52:20.778Z,12.43
2023-01-27T04:57:14.360Z,13.43
2023-01-27T05:02:06.917Z,12.90
2023-01-27T05:06:59.012Z,13.13
2023-01-27T05:11:51.056Z,15.10
2023-01-27T05:16:43.248Z,20.30
2023-01-27T05:21:35.299Z,14.13
2023-01-27T05:26:28.269Z,12.47
2023-01-27T05:31:23.082Z,14.10
2023-01-27T05:36:17.433Z,14.60
2023-01-27T05:41:14.500Z,22.77
2023-01-27T05:46:15.505Z,14.93
2023-01-27T05:51:08.259Z,15.57
2023-01-27T05:56:04.645Z,13.70
2023-01-27T06:01:00.942Z,13.17
2023-01-27T06:05:55.641Z,13.50
2023-01-27T06:10:47.926Z,13.63
2023-01-27T06:15:41.527Z,11.73
2023-01-27T06:20:33.876Z,11.30
2023-01-27T06:32:27.425Z,14.70
2023-01-27T06:37:19.466Z,14.57
2023-01-27T06:42:11.556Z,12.87
2023-01-27T06:47:03.797Z,13.30
2023-01-27T06:51:55.751Z,13.80
2023-01-27T06:56:48.005Z,11.50
2023-01-27T07:01:40.214Z,10.07
2023-01-27T07:06:33.126Z,9.67
2023-01-27T07:11:25.519Z,9.17
2023-01-27T07:16:17.613Z,10.37
2023-01-27T07:21:09.711Z,9.40
2023-01-27T07:26:05.722Z,11.43
2023-01-27T07:31:03.449Z,12.53
2023-01-27T07:35:56.058Z,11.43
2023-01-27T07:40:48.129Z,11.87
2023-01-27T07:45:40.116Z,11.80
2023-01-27T07:50:32.344Z,12.27
2023-01-27T07:55:24.431Z,13.63
2023-01-27T08:00:16.906Z,15.50
2023-01-27T08:05:09.403Z,13.70
2023-01-27T08:10:01.531Z,14.83
2023-01-27T08:14:54.728Z,13.20
2023-01-27T08:19:47.011Z,11.53
2023-01-27T08:24:39.074Z,9.60
2023-01-27T08:29:33.307Z,10.83
2023-01-27T08:34:25.447Z,10.27
2023-01-27T08:39:17.525Z,9.67
2023-01-27T08:44:09.590Z,9.30
2023-01-27T08:49:01.911Z,11.57
2023-01-27T08:53:54.025Z,12.27
2023-01-27T08:58:52.221Z,12.43
2023-01-27T09:03:44.291Z,10.90
2023-01-27T09:08:36.377Z,10.80
2023-01-27T09:13:28.920Z,12.07
2023-01-27T09:18:21.406Z,8.53
2023-01-27T09:23:14.762Z,11.50
2023-01-27T09:28:10.180Z,10.73
2023-01-27T09:33:02.307Z,10.70
2023-01-27T09:37:59.190Z,12.07
2023-01-27T09:43:10.892Z,12.73
2023-01-27T09:48:11.171Z,13.23
2023-01-27T09:53:33.331Z,11.43
2023-01-27T09:58:41.860Z,12.57
2023-01-27T10:03:43.526Z,12.90
2023-01-27T10:08:54.523Z,13.90
2023-01-27T10:13:47.719Z,14.23
2023-01-27T10:19:00.656Z,14.43
2023-01-27T10:24:28.230Z,16.47
2023-01-27T10:29:44.567Z,20.13
2023-01-27T10:34:52.895Z,27.23
2023-01-27T10:40:14.288Z,17.67
2023-01-27T10:45:28.052Z,20.73
2023-01-27T10:50:44.167Z,15.97
2023-01-27T10:55:53.219Z,14.67
2023-01-27T11:06:08.637Z,17.80
2023-01-27T11:11:23.879Z,19.30
2023-01-27T11:16:20.817Z,16.70
2023-01-27T11:21:18.564Z,19.83
2023-01-27T11:26:30.401Z,17.77
2023-01-27T11:31:44.078Z,17.37
2023-01-27T11:36:36.450Z,19.43
2023-01-27T11:41:28.638Z,18.13
2023-01-27T11:46:24.453Z,20.90
2023-01-27T11:51:23.419Z,27.23
2023-01-27T11:56:19.071Z,24.87
2023-01-27T12:01:16.735Z,17.27
2023-01-27T12:06:34.640Z,15.87
2023-01-27T12:11:31.792Z,16.47
2023-01-27T12:16:50.312Z,15.97
2023-01-27T12:21:52.487Z,15.90
2023-01-27T12:26:45.387Z,16.87
2023-01-27T12:31:48.016Z,16.83
2023-01-27T12:36:43.181Z,16.47
2023-01-27T12:41:37.790Z,16.23
2023-01-27T12:46:32.346Z,15.27
2023-01-27T12:51:44.999Z,16.00
2023-01-27T12:56:37.579Z,13.97
2023-01-27T13:01:41.351Z,14.40
2023-01-27T13:06:43.608Z,25.07
2023-01-27T13:11:40.066Z,15.07
2023-01-27T13:16:32.337Z,15.40
2023-01-27T13:21:39.400Z,17.83
2023-01-27T13:26:34.993Z,18.83
2023-01-27T13:31:37.102Z,14.20
2023-01-27T13:36:31.923Z,13.53
2023-01-27T13:41:48.822Z,15.37
2023-01-27T13:46:42.032Z,14.67
2023-01-27T13:51:34.263Z,13.10
2023-01-27T13:56:26.853Z,12.67
2023-01-27T14:01:28.615Z,13.90
2023-01-27T14:06:39.933Z,10.30
2023-01-27T14:11:38.592Z,10.13
2023-01-27T14:16:37.698Z,10.13
2023-01-27T14:21:52.709Z,11.23
2023-01-27T14:27:01.462Z,11.00
2023-01-27T14:32:21.580Z,12.60
2023-01-27T14:37:55.077Z,13.70
2023-01-27T14:43:06.049Z,12.33
2023-01-27T14:48:02.834Z,10.77
2023-01-27T14:53:17.124Z,11.47
2023-01-27T14:58:47.725Z,11.70
2023-01-27T15:03:46.111Z,11.23
2023-01-27T15:09:01.881Z,10.40
2023-01-27T15:14:15.578Z,10.27
2023-01-27T15:19:33.717Z,10.83
2023-01-27T15:24:43.533Z,10.27
2023-01-27T15:29:36.204Z,9.57
2023-01-27T15:34:30.040Z,10.27
2023-01-27T15:39:35.580Z,10.77
2023-01-27T15:44:39.986Z,10.10
2023-01-27T15:49:51.236Z,10.40
2023-01-27T15:54:44.961Z,9.13
2023-01-27T15:59:58.872Z,8.73
2023-01-27T16:05:16.524Z,9.50
2023-01-27T16:10:16.981Z,9.23
2023-01-27T16:15:15.377Z,9.40
2023-01-27T16:20:25.181Z,9.27
2023-01-27T16:25:44.133Z,8.37
2023-01-27T16:30:43.751Z,7.77
2023-01-27T16:36:06.156Z,6.77
2023-01-27T16:41:09.338Z,6.73
2023-01-27T16:46:02.379Z,6.60
2023-01-27T16:51:05.784Z,6.87
2023-01-27T16:56:02.840Z,6.77
2023-01-27T17:00:57.604Z,8.13
2023-01-27T17:05:52.330Z,9.07
2023-01-27T17:10:56.176Z,9.90
2023-01-27T17:15:48.278Z,9.87
2023-01-27T17:20:45.941Z,10.17
2023-01-27T17:25:39.785Z,11.53
2023-01-27T17:30:39.626Z,11.43
2023-01-27T17:35:35.400Z,10.77
2023-01-27T17:40:27.374Z,11.80
2023-01-27T17:45:28.703Z,14.13
2023-01-27T17:50:27.509Z,14.70
2023-01-27T17:55:21.857Z,12.27
2023-01-27T18:00:30.819Z,17.70
2023-01-27T18:05:28.351Z,13.90
2023-01-27T18:10:35.309Z,17.30
2023-01-27T18:15:47.587Z,15.60
2023-01-27T18:20:39.722Z,14.77
2023-01-27T18:25:31.882Z,14.37
2023-01-27T18:30:26.527Z,14.90
2023-01-27T18:35:30.785Z,17.43
2023-01-27T18:40:34.368Z,15.87
2023-01-27T18:45:27.652Z,15.60
2023-01-27T18:50:21.829Z,17.50
2023-01-27T18:55:21.250Z,15.50
2023-01-27T19:00:18.983Z,23.47
2023-01-27T19:05:32.948Z,21.27
2023-01-27T19:10:34.762Z,16.00
2023-01-27T19:15:30.577Z,16.83
2023-01-27T19:20:25.726Z,20.53
2023-01-27T19:25:18.045Z,18.30
2023-01-27T19:30:37.601Z,18.43
2023-01-27T19:35:32.385Z,24.43
2023-01-27T19:40:28.630Z,20.33
2023-01-27T19:45:22.351Z,23.93
2023-01-27T19:50:23.348Z,18.93
2023-01-27T19:55:16.566Z,18.87
2023-01-27T20:00:24.400Z,21.80
2023-01-27T20:05:17.084Z,19.73
2023-01-27T20:10:18.351Z,18.17
2023-01-27T20:15:18.300Z,19.63
2023-01-27T20:20:11.075Z,19.20
2023-01-27T20:25:04.766Z,19.60
2023-01-27T20:29:57.136Z,18.47
2023-01-27T20:34:49.250Z,19.17
2023-01-27T20:39:41.255Z,19.40
2023-01-27T20:44:33.263Z,18.53
2023-01-27T20:49:25.376Z,19.83
2023-01-27T20:54:17.457Z,18.97
2023-01-27T20:59:09.607Z,19.07
2023-01-27T21:04:01.681Z,18.13
2023-01-27T21:08:53.726Z,18.10
2023-01-27T21:13:46.155Z,19.17
2023-01-27T21:18:38.439Z,18.13
2023-01-27T21:23:32.574Z,18.33
2023-01-27T21:28:24.618Z,19.77
2023-01-27T21:33:17.150Z,19.20
2023-01-27T21:38:09.256Z,20.13
2023-01-27T21:43:19.538Z,18.93
2023-01-27T21:48:11.538Z,18.50
2023-01-27T21:53:09.775Z,18.80
2023-01-27T21:58:01.787Z,17.93
2023-01-27T22:02:58.965Z,19.07
2023-01-27T22:07:52.148Z,19.97
2023-01-27T22:12:44.850Z,19.50
2023-01-27T22:17:36.884Z,19.53
2023-01-27T22:22:28.926Z,19.50
2023-01-27T22:27:20.990Z,18.37
2023-01-27T22:32:13.078Z,17.70
2023-01-27T22:37:05.236Z,16.13
2023-01-27T22:41:57.251Z,18.33
2023-01-27T22:46:49.669Z,17.67
2023-01-27T22:51:41.812Z,16.13
2023-01-27T22:56:33.757Z,16.97
2023-01-27T23:01:27.198Z,17.07
2023-01-27T23:06:19.439Z,17.10
2023-01-27T23:11:12.076Z,18.00
2023-01-27T23:16:04.477Z,17.37
2023-01-27T23:21:06.889Z,16.60
2023-01-27T23:25:59.107Z,16.80
2023-01-27T23:30:51.640Z,12.10
2023-01-27T23:35:43.945Z,12.40
2023-01-27T23:40:37.500Z,8.47
2023-01-27T23:45:29.559Z,7.87
2023-01-27T23:50:21.849Z,6.63
2023-01-27T23:55:15.446Z,7.20
